RJSC/GAJ METAR and TAF weather

Enter ICAO airport designator
Station Type Date Time Source
RJSC METAR 2019/06/20 07:00 UTC NOAA

RJSC 200700Z 34007KT 300V010 9999 FEW040 27/19 Q1005


Station Type Date Time Source
RJSC Decoded METAR 2019/06/20 07:00 UTC NOAA

Yamagata Airport, Japan (RJSC) 38-25N 140-22E 108M
Jun 20, 2019 - 03:00 AM EDT / 2019.06.20 0700 UTC
Wind: from the NNW (340 degrees) at 8 MPH (7 KT) (direction variable):0
Visibility: greater than 7 mile(s):0
Sky conditions: mostly clear
Temperature: 80 F (27 C)
Dew Point: 66 F (19 C)
Relative Humidity: 61%
Pressure (altimeter): 29.68 in. Hg (1005 hPa)
ob: RJSC 200700Z 34007KT 300V010 9999 FEW040 27/19 Q1005
cycle: 7

Station Type Date Time Source
RJSC TAF UTC NOAA

Error!

Example: see airport list